Time;durP1;ratioP1;P1;durP2;ratioP2;P2;SDS_P1;SDS_P2;PMS_P1;PMS_P2;Temp;Humidity;BMP_temperature;BMP_pressure;BME280_temperature;BME280_humidity;BME280_pressure;Samples;Min_cycle;Max_cycle;Signal;HPM_P1;HPM_P2
2022/07/11 00:00:49;;;;;;;;;;;;;;;-142.75;100.00;77426.66;5033541;28;19955;-70
2022/07/11 00:03:14;;;;;;;;;;;;;;;-142.75;100.00;77432.56;5052099;28;19935;-69
2022/07/11 00:05:39;;;;;;;;;;;;;;;-142.75;100.00;77432.56;5034236;28;19913;-69
2022/07/11 00:08:06;;;;;;;;;;;;;;;-142.75;100.00;77432.56;5051787;28;20008;-70
2022/07/11 00:10:31;;;;;;;;;;;;;;;-142.75;100.00;77428.63;5051882;28;19917;-70
2022/07/11 00:12:57;;;;;;;;;;;;;;;-142.75;100.00;77428.63;5050432;28;20349;-69
2022/07/11 00:15:22;;;;;;;;;;;;;;;-142.75;100.00;77434.53;5052138;28;20413;-69
2022/07/11 00:17:47;;;;;;;;;;;;;;;-142.75;100.00;77432.56;5051830;28;19913;-69
2022/07/11 00:20:12;;;;;;;;;;;;;;;-142.75;100.00;77426.66;5051818;28;19912;-69
2022/07/11 00:25:04;;;;;;;;;;;;;;;-142.75;100.00;77428.63;4977745;22;20381;-67
2022/07/11 00:27:29;;;;;;;;;;;;;;;-142.75;100.00;77434.53;4950704;28;19965;-67
2022/07/11 00:29:54;;;;;;;;;;;;;;;-142.75;100.00;77436.50;4965568;28;19922;-68
2022/07/11 00:32:19;;;;;;;;;;;;;;;-142.75;100.00;77436.50;4951088;29;20270;-67
2022/07/11 00:34:45;;;;;;;;;;;;;;;-142.75;100.00;77428.63;4949678;29;19915;-68
2022/07/11 00:37:12;;;;;;;;;;;;;;;-142.75;100.00;77428.63;4950319;28;20144;-67
2022/07/11 00:39:37;;;;;;;;;;;;;;;-142.75;100.00;77426.66;4950545;29;19954;-68
2022/07/11 00:42:02;;;;;;;;;;;;;;;-142.75;100.00;77422.72;4950918;29;19921;-67
2022/07/11 00:44:27;;;;;;;;;;;;;;;-142.75;100.00;77420.75;4950810;28;19918;-68
2022/07/11 00:46:53;;;;;;;;;;;;;;;-142.75;100.00;77420.75;4949645;29;20364;-68
2022/07/11 00:49:19;;;;;;;;;;;;;;;-142.75;100.00;77408.94;4950577;28;20001;-68
2022/07/11 00:51:44;;;;;;;;;;;;;;;-142.75;100.00;77405.00;4950765;28;19919;-67
2022/07/11 00:54:10;;;;;;;;;;;;;;;-142.75;100.00;77408.94;4950601;29;19915;-68
2022/07/11 00:56:35;;;;;;;;;;;;;;;-142.75;100.00;77399.09;4950747;28;20425;-68
2022/07/11 00:59:01;;;;;;;;;;;;;;;-142.75;100.00;77391.22;4950483;29;19918;-68
2022/07/11 01:01:26;;;;;;;;;;;;;;;-142.75;100.00;77385.31;4949502;28;19958;-67
2022/07/11 01:03:52;;;;;;;;;;;;;;;-142.75;100.00;77395.16;4950625;29;20428;-68
2022/07/11 01:06:17;;;;;;;;;;;;;;;-142.75;100.00;77389.25;4950682;28;20011;-67
2022/07/11 01:08:43;;;;;;;;;;;;;;;-142.75;100.00;77391.22;4950232;29;19958;-68
2022/07/11 01:11:12;;;;;;;;;;;;;;;-142.75;100.00;77391.22;4951887;28;20009;-68
2022/07/11 01:13:37;;;;;;;;;;;;;;;-142.75;100.00;77395.16;4953795;28;19914;-68
2022/07/11 01:16:12;;;;;;;;;;;;;;;-142.75;100.00;77393.19;4953931;28;20364;-68
2022/07/11 01:18:38;;;;;;;;;;;;;;;-142.75;100.00;77389.25;4953528;28;19915;-68
2022/07/11 01:21:06;;;;;;;;;;;;;;;-142.75;100.00;77389.25;4952544;28;19921;-68
2022/07/11 01:23:31;;;;;;;;;;;;;;;-142.75;100.00;77387.28;4952216;28;20449;-68
2022/07/11 01:25:57;;;;;;;;;;;;;;;-142.75;100.00;77381.38;4953681;28;19946;-68
2022/07/11 01:28:22;;;;;;;;;;;;;;;-142.75;100.00;77377.44;4953404;28;19942;-67
2022/07/11 01:30:47;;;;;;;;;;;;;;;-142.75;100.00;77375.47;4953550;28;19925;-68
2022/07/11 01:33:12;;;;;;;;;;;;;;;-142.75;100.00;77373.50;4952293;28;20285;-67
2022/07/11 01:35:37;;;;;;;;;;;;;;;-142.75;100.00;77369.56;4953495;29;19918;-68
2022/07/11 01:38:02;;;;;;;;;;;;;;;-142.75;100.00;77365.63;4953028;28;19914;-68
2022/07/11 01:40:28;;;;;;;;;;;;;;;-142.75;100.00;77367.59;4952222;28;19942;-67
2022/07/11 01:42:53;;;;;;;;;;;;;;;-142.75;100.00;77359.72;4953389;28;19961;-68
2022/07/11 01:45:18;;;;;;;;;;;;;;;-142.75;100.00;77357.75;4953497;28;19959;-68
2022/07/11 01:47:43;;;;;;;;;;;;;;;-142.75;100.00;77359.72;4953156;29;20403;-67
2022/07/11 01:50:09;;;;;;;;;;;;;;;-142.75;100.00;77361.69;4951854;28;19918;-67
2022/07/11 01:52:34;;;;;;;;;;;;;;;-142.75;100.00;77353.81;4953150;29;19964;-68
2022/07/11 01:54:59;;;;;;;;;;;;;;;-142.75;100.00;77351.84;4953346;28;20342;-68
2022/07/11 01:57:24;;;;;;;;;;;;;;;-142.75;100.00;77347.91;4953075;29;20272;-67
2022/07/11 01:59:49;;;;;;;;;;;;;;;-142.75;100.00;77349.88;4952858;29;19914;-68
2022/07/11 02:02:15;;;;;;;;;;;;;;;-142.75;100.00;77340.03;4953109;29;19922;-67
2022/07/11 02:04:41;;;;;;;;;;;;;;;-142.75;100.00;77340.03;4951746;28;19993;-67
2022/07/11 02:07:06;;;;;;;;;;;;;;;-142.75;100.00;77340.03;4952923;28;20009;-68
2022/07/11 02:09:31;;;;;;;;;;;;;;;-142.75;100.00;77330.19;4952622;28;19921;-67
2022/07/11 02:11:56;;;;;;;;;;;;;;;-142.75;100.00;77338.06;4953150;28;19915;-67
2022/07/11 02:14:21;;;;;;;;;;;;;;;-142.75;100.00;77334.13;4952840;29;19971;-67
2022/07/11 02:16:47;;;;;;;;;;;;;;;-142.75;100.00;77326.25;4952940;28;19922;-68
2022/07/11 02:19:12;;;;;;;;;;;;;;;-142.75;100.00;77322.31;4952569;28;19919;-67
2022/07/11 02:21:38;;;;;;;;;;;;;;;-142.75;100.00;77326.25;4952367;29;19914;-66
2022/07/11 02:24:03;;;;;;;;;;;;;;;-142.75;100.00;77320.34;4952013;28;20001;-68
2022/07/11 02:26:29;;;;;;;;;;;;;;;-142.75;100.00;77322.31;4952746;28;19922;-67
2022/07/11 02:28:54;;;;;;;;;;;;;;;-142.75;100.00;77314.44;4952423;29;19916;-68
2022/07/11 02:31:19;;;;;;;;;;;;;;;-142.75;100.00;77310.50;4952591;29;19973;-67
2022/07/11 02:33:45;;;;;;;;;;;;;;;-142.75;100.00;77312.47;4952638;28;19922;-67
2022/07/11 02:36:10;;;;;;;;;;;;;;;-142.75;100.00;77306.56;4952455;29;19914;-67
2022/07/11 02:38:35;;;;;;;;;;;;;;;-142.75;100.00;77310.50;4952417;28;19915;-68
2022/07/11 02:41:00;;;;;;;;;;;;;;;-142.75;100.00;77306.56;4952547;29;19914;-68
2022/07/11 02:43:26;;;;;;;;;;;;;;;-142.75;100.00;77302.63;4952415;29;20283;-67
2022/07/11 02:45:51;;;;;;;;;;;;;;;-142.75;100.00;77306.56;4952452;28;19915;-68
2022/07/11 02:48:17;;;;;;;;;;;;;;;-142.75;100.00;77308.53;4952146;29;19914;-68
2022/07/11 02:50:42;;;;;;;;;;;;;;;-142.75;100.00;77314.44;4952241;28;19922;-68
2022/07/11 02:53:07;;;;;;;;;;;;;;;-142.75;100.00;77304.59;4952336;29;19915;-66
2022/07/11 02:55:32;;;;;;;;;;;;;;;-142.75;100.00;77300.66;4952363;29;19945;-67
2022/07/11 02:57:57;;;;;;;;;;;;;;;-142.75;100.00;77298.69;4951965;28;19974;-67
2022/07/11 03:00:23;;;;;;;;;;;;;;;-142.75;100.00;77308.53;4952239;29;19968;-67
2022/07/11 03:02:48;;;;;;;;;;;;;;;-142.75;100.00;77296.72;4952170;29;19976;-68
2022/07/11 03:05:14;;;;;;;;;;;;;;;-142.75;100.00;77304.59;4952105;29;19922;-68
2022/07/11 03:07:39;;;;;;;;;;;;;;;-142.75;100.00;77308.53;4952129;28;19918;-67
2022/07/11 03:10:05;;;;;;;;;;;;;;;-142.75;100.00;77296.72;4951864;28;19919;-68
2022/07/11 03:12:30;;;;;;;;;;;;;;;-142.75;100.00;77294.75;4952113;28;20303;-67
2022/07/11 03:14:55;;;;;;;;;;;;;;;-142.75;100.00;77300.66;4952035;28;19957;-67
2022/07/11 03:17:21;;;;;;;;;;;;;;;-142.75;100.00;77302.63;4952042;28;20301;-67
2022/07/11 03:19:49;;;;;;;;;;;;;;;-142.75;100.00;77310.50;4951645;28;19969;-67
2022/07/11 03:22:15;;;;;;;;;;;;;;;-142.75;100.00;77312.47;4952014;28;19914;-67
2022/07/11 03:24:41;;;;;;;;;;;;;;;-142.75;100.00;77314.44;4951829;28;20060;-67
2022/07/11 03:27:06;;;;;;;;;;;;;;;-142.75;100.00;77306.56;4951901;28;19915;-67
2022/07/11 03:29:31;;;;;;;;;;;;;;;-142.75;100.00;77302.63;4950337;28;19926;-68
2022/07/11 03:31:57;;;;;;;;;;;;;;;-142.75;100.00;77304.59;4951893;28;20052;-68
2022/07/11 03:34:22;;;;;;;;;;;;;;;-142.75;100.00;77302.63;4950221;28;19919;-67
2022/07/11 03:36:47;;;;;;;;;;;;;;;-142.75;100.00;77302.63;4951651;29;19914;-68
2022/07/11 03:39:13;;;;;;;;;;;;;;;-142.75;100.00;77306.56;4950527;28;20102;-68
2022/07/11 03:41:38;;;;;;;;;;;;;;;-142.75;100.00;77306.56;4951668;28;19922;-67
2022/07/11 03:44:03;;;;;;;;;;;;;;;-142.75;100.00;77298.69;4951614;29;19915;-68
2022/07/11 03:46:29;;;;;;;;;;;;;;;-142.75;100.00;77294.75;4951667;28;19915;-67
2022/07/11 03:48:54;;;;;;;;;;;;;;;-142.75;100.00;77296.72;4951308;29;20332;-67
2022/07/11 03:51:19;;;;;;;;;;;;;;;-142.75;100.00;77288.84;4951382;29;19922;-67
2022/07/11 03:53:44;;;;;;;;;;;;;;;-142.75;100.00;77288.84;4951421;29;20013;-68
2022/07/11 03:56:10;;;;;;;;;;;;;;;-142.75;100.00;77288.84;4951725;28;20044;-68
2022/07/11 03:58:35;;;;;;;;;;;;;;;-142.75;100.00;77286.88;4951211;29;20384;-68
2022/07/11 04:01:00;;;;;;;;;;;;;;;-142.75;100.00;77288.84;4951492;29;20059;-68
2022/07/11 04:03:25;;;;;;;;;;;;;;;-142.75;100.00;77288.84;4951499;28;19922;-67
2022/07/11 04:05:51;;;;;;;;;;;;;;;-142.75;100.00;77284.91;4951308;28;19961;-67
2022/07/11 04:08:16;;;;;;;;;;;;;;;-142.75;100.00;77290.81;4951113;28;20052;-67
2022/07/11 04:10:41;;;;;;;;;;;;;;;-142.75;100.00;77288.84;4951244;29;20319;-67
2022/07/11 04:13:06;;;;;;;;;;;;;;;-142.75;100.00;77296.72;4951268;29;19915;-67
2022/07/11 04:15:32;;;;;;;;;;;;;;;-142.75;100.00;77298.69;4951295;29;19919;-68
2022/07/11 04:17:57;;;;;;;;;;;;;;;-142.75;100.00;77298.69;4950964;29;20381;-67
2022/07/11 04:20:22;;;;;;;;;;;;;;;-142.75;100.00;77296.72;4951092;29;19926;-67
2022/07/11 04:22:47;;;;;;;;;;;;;;;-142.75;100.00;77294.75;4951062;29;19921;-67
2022/07/11 04:25:12;;;;;;;;;;;;;;;-142.75;100.00;77290.81;4951193;29;20340;-67
2022/07/11 04:27:38;;;;;;;;;;;;;;;-142.75;100.00;77298.69;4951178;29;19915;-68
2022/07/11 04:30:03;;;;;;;;;;;;;;;-142.75;100.00;77294.75;4950711;29;19965;-68
2022/07/11 04:32:28;;;;;;;;;;;;;;;-142.75;100.00;77292.78;4951106;28;19918;-68
2022/07/11 04:34:54;;;;;;;;;;;;;;;-142.75;100.00;77290.81;4950975;28;19915;-68
2022/07/11 04:37:19;;;;;;;;;;;;;;;-142.75;100.00;77280.97;4951104;28;20029;-68
2022/07/11 04:39:46;;;;;;;;;;;;;;;-142.75;100.00;77279.00;4950679;29;20005;-68
2022/07/11 04:42:11;;;;;;;;;;;;;;;-142.75;100.00;77275.06;4951054;28;19918;-68
2022/07/11 04:44:37;;;;;;;;;;;;;;;-142.75;100.00;77271.13;4950913;28;20376;-68
2022/07/11 04:47:02;;;;;;;;;;;;;;;-142.75;100.00;77279.00;4953576;28;20343;-68
2022/07/11 04:49:28;;;;;;;;;;;;;;;-142.75;100.00;77271.13;4953902;28;19915;-68
2022/07/11 04:51:54;;;;;;;;;;;;;;;-142.75;100.00;77269.16;4954211;28;20395;-68
2022/07/11 04:54:19;;;;;;;;;;;;;;;-142.75;100.00;77265.22;4954114;28;20005;-68
2022/07/11 04:56:45;;;;;;;;;;;;;;;-142.75;100.00;77265.22;4954157;29;19915;-68
2022/07/11 04:59:10;;;;;;;;;;;;;;;-142.75;100.00;77267.19;4953887;28;20008;-68
2022/07/11 05:01:35;;;;;;;;;;;;;;;-142.75;100.00;77267.19;4954110;29;19914;-67
2022/07/11 05:04:00;;;;;;;;;;;;;;;-142.75;100.00;77273.09;4953870;28;20410;-68
2022/07/11 05:06:26;;;;;;;;;;;;;;;-142.75;100.00;77267.19;4954016;29;19973;-68
2022/07/11 05:08:51;;;;;;;;;;;;;;;-142.75;100.00;77273.09;4953692;28;19922;-68
2022/07/11 05:11:17;;;;;;;;;;;;;;;-142.75;100.00;77267.19;4953808;29;19925;-68
2022/07/11 05:13:42;;;;;;;;;;;;;;;-142.75;100.00;77275.06;4953817;29;19965;-68
2022/07/11 05:16:07;;;;;;;;;;;;;;;-142.75;100.00;77280.97;4953863;29;19950;-68
2022/07/11 05:18:32;;;;;;;;;;;;;;;-142.75;100.00;77280.97;4953468;29;19964;-68
2022/07/11 05:20:57;;;;;;;;;;;;;;;-142.75;100.00;77280.97;4953781;29;19914;-68
2022/07/11 05:23:23;;;;;;;;;;;;;;;-142.75;100.00;77277.03;4953560;29;20359;-67
2022/07/11 05:25:48;;;;;;;;;;;;;;;-142.75;100.00;77275.06;4953693;29;20435;-68
2022/07/11 05:28:13;;;;;;;;;;;;;;;-142.75;100.00;77280.97;4953361;29;19941;-68
2022/07/11 05:30:38;;;;;;;;;;;;;;;-142.75;100.00;77286.88;4953550;29;19918;-67
2022/07/11 05:33:04;;;;;;;;;;;;;;;-142.75;100.00;77296.72;4953553;29;19914;-68
2022/07/11 05:35:29;;;;;;;;;;;;;;;-142.75;100.00;77304.59;4952257;28;20594;-68
2022/07/11 05:37:54;;;;;;;;;;;;;;;-142.75;100.00;77302.63;4953427;28;19981;-67
2022/07/11 05:40:20;;;;;;;;;;;;;;;-142.75;100.00;77300.66;4953634;28;19922;-68
2022/07/11 05:42:45;;;;;;;;;;;;;;;-142.75;100.00;77298.69;4952115;28;20013;-68
2022/07/11 05:45:10;;;;;;;;;;;;;;;-142.75;100.00;77306.56;4953428;29;20428;-69
2022/07/11 05:47:35;;;;;;;;;;;;;;;-142.75;100.00;77300.66;4953282;29;19914;-68
2022/07/11 05:50:00;;;;;;;;;;;;;;;-142.75;100.00;77298.69;4952900;29;19919;-68
2022/07/11 05:52:26;;;;;;;;;;;;;;;-142.75;100.00;77298.69;4953274;29;19968;-68
2022/07/11 05:54:51;;;;;;;;;;;;;;;-142.75;100.00;77294.75;4953196;29;20008;-68
2022/07/11 05:57:16;;;;;;;;;;;;;;;-142.75;100.00;77298.69;4953160;28;19915;-68
2022/07/11 05:59:41;;;;;;;;;;;;;;;-142.75;100.00;77294.75;4952872;29;19915;-68
2022/07/11 06:02:07;;;;;;;;;;;;;;;-142.75;100.00;77296.72;4953087;29;19919;-68
2022/07/11 06:04:33;;;;;;;;;;;;;;;-142.75;100.00;77298.69;4953003;28;19919;-68
2022/07/11 06:06:58;;;;;;;;;;;;;;;-142.75;100.00;77302.63;4953066;28;19915;-68
2022/07/11 06:09:24;;;;;;;;;;;;;;;-142.75;100.00;77302.63;4952751;29;19915;-68
2022/07/11 06:11:49;;;;;;;;;;;;;;;-142.75;100.00;77294.75;4952920;28;19988;-68
2022/07/11 06:14:14;;;;;;;;;;;;;;;-142.75;100.00;77298.69;4952915;28;20435;-68
2022/07/11 06:16:39;;;;;;;;;;;;;;;-142.75;100.00;77300.66;4952858;29;20056;-68
2022/07/11 06:19:05;;;;;;;;;;;;;;;-142.75;100.00;77294.75;4952581;29;20381;-67
2022/07/11 06:21:30;;;;;;;;;;;;;;;-142.75;100.00;77298.69;4952859;28;20452;-68
2022/07/11 06:23:56;;;;;;;;;;;;;;;-142.75;100.00;77290.81;4974572;22;19949;-69
2022/07/11 06:26:21;;;;;;;;;;;;;;;-142.75;100.00;77284.91;4951746;29;20368;-68
2022/07/11 06:28:46;;;;;;;;;;;;;;;-142.75;100.00;77280.97;4950859;29;20265;-70
2022/07/11 06:31:12;;;;;;;;;;;;;;;-142.75;100.00;77279.00;4952614;29;19928;-69
2022/07/11 06:33:37;;;;;;;;;;;;;;;-142.75;100.00;77267.19;4952626;29;19937;-68
2022/07/11 06:36:04;;;;;;;;;;;;;;;-142.75;100.00;77259.31;4951376;28;19921;-68
2022/07/11 06:38:29;;;;;;;;;;;;;;;-142.75;100.00;77263.25;4952369;28;19922;-70
2022/07/11 06:40:55;;;;;;;;;;;;;;;-142.75;100.00;77265.22;4952550;28;20380;-70
2022/07/11 06:43:20;;;;;;;;;;;;;;;-142.75;100.00;77263.25;4952477;28;19914;-69
2022/07/11 06:45:46;;;;;;;;;;;;;;;-142.75;100.00;77253.41;4951821;28;20367;-68
2022/07/11 06:48:11;;;;;;;;;;;;;;;-142.75;100.00;77253.41;4951105;28;19919;-68
2022/07/11 06:50:37;;;;;;;;;;;;;;;-142.75;100.00;77259.31;4942711;28;19926;-69
2022/07/11 06:53:02;;;;;;;;;;;;;;;-142.75;100.00;77255.38;4947107;28;19922;-70
2022/07/11 06:55:28;;;;;;;;;;;;;;;-142.75;100.00;77247.50;4949844;28;19914;-70
2022/07/11 06:57:53;;;;;;;;;;;;;;;-142.75;100.00;77253.41;4949903;28;19915;-68
2022/07/11 07:00:18;;;;;;;;;;;;;;;-142.75;100.00;77255.38;4950324;28;19914;-70
2022/07/11 07:02:44;;;;;;;;;;;;;;;-142.75;100.00;77247.50;4949958;28;19922;-69
2022/07/11 07:05:09;;;;;;;;;;;;;;;-142.75;100.00;77243.56;4949947;28;19915;-69
2022/07/11 07:07:35;;;;;;;;;;;;;;;-142.75;100.00;77241.59;4950202;28;20381;-69
2022/07/11 07:10:00;;;;;;;;;;;;;;;-142.75;100.00;77241.59;4962390;28;19981;-70
2022/07/11 07:12:25;;;;;;;;;;;;;;;-142.75;100.00;77237.66;4948671;28;20038;-69
2022/07/11 07:14:51;;;;;;;;;;;;;;;-142.75;100.00;77231.75;4950981;28;19980;-70
2022/07/11 07:17:16;;;;;;;;;;;;;;;-142.75;100.00;77231.75;4950840;28;19944;-69
2022/07/11 07:19:41;;;;;;;;;;;;;;;-142.75;100.00;77229.78;4950348;28;20453;-69
2022/07/11 07:22:08;;;;;;;;;;;;;;;-142.75;100.00;77235.69;4949949;28;19957;-70
2022/07/11 07:24:33;;;;;;;;;;;;;;;-142.75;100.00;77235.69;4950949;28;19993;-69
2022/07/11 07:26:59;;;;;;;;;;;;;;;-142.75;100.00;77227.81;4951169;28;20064;-70
2022/07/11 07:29:26;;;;;;;;;;;;;;;-142.75;100.00;77235.69;4950709;28;19968;-70
2022/07/11 07:31:52;;;;;;;;;;;;;;;-142.75;100.00;77229.78;4949693;28;19925;-68
2022/07/11 07:34:18;;;;;;;;;;;;;;;-142.75;100.00;77225.84;4950914;28;20395;-70
2022/07/11 07:36:43;;;;;;;;;;;;;;;-142.75;100.00;77214.03;4950945;28;19915;-68
2022/07/11 07:39:08;;;;;;;;;;;;;;;-142.75;100.00;77210.09;4949483;28;20296;-69
2022/07/11 07:41:33;;;;;;;;;;;;;;;-142.75;100.00;77206.16;4981178;28;19996;-69
2022/07/11 07:43:59;;;;;;;;;;;;;;;-142.75;100.00;77202.22;5051924;28;19919;-68
2022/07/11 07:46:24;;;;;;;;;;;;;;;-142.75;100.00;77192.38;5050851;28;19912;-70
2022/07/11 07:48:49;;;;;;;;;;;;;;;-142.75;100.00;77180.56;5051622;28;20287;-70
2022/07/11 07:51:14;;;;;;;;;;;;;;;-142.75;100.00;77184.50;4988582;28;20001;-69
2022/07/11 07:53:39;;;;;;;;;;;;;;;-142.75;100.00;77170.72;4950761;28;19954;-70
2022/07/11 07:56:05;;;;;;;;;;;;;;;-142.75;100.00;77156.94;4950082;28;19936;-69
2022/07/11 07:58:30;;;;;;;;;;;;;;;-142.75;100.00;77162.84;4951054;28;19915;-69
2022/07/11 08:03:39;;;;;;;;;;;;;;;-142.75;100.00;77147.09;4951396;28;19976;-69
2022/07/11 08:06:04;;;;;;;;;;;;;;;-142.75;100.00;77131.34;4950948;28;19942;-69
2022/07/11 08:08:29;;;;;;;;;;;;;;;-142.75;100.00;77135.28;4949363;28;19915;-69
2022/07/11 08:10:55;;;;;;;;;;;;;;;-142.75;100.00;77133.31;4949452;28;20380;-70
2022/07/11 08:13:21;;;;;;;;;;;;;;;-142.75;100.00;77153.00;4950954;28;19915;-70
2022/07/11 08:15:46;;;;;;;;;;;;;;;-142.75;100.00;77141.19;4949875;28;19954;-70
2022/07/11 08:18:11;;;;;;;;;;;;;;;-142.75;100.00;77133.31;4950977;28;19914;-69
2022/07/11 08:20:37;;;;;;;;;;;;;;;-142.75;100.00;77127.41;4950887;28;20400;-69
2022/07/11 08:23:03;;;;;;;;;;;;;;;-142.75;100.00;77121.50;4954715;28;19918;-70
2022/07/11 08:25:29;;;;;;;;;;;;;;;-142.75;100.00;77121.50;4953026;28;19923;-70
2022/07/11 08:27:54;;;;;;;;;;;;;;;-142.75;100.00;77107.72;4952930;28;19921;-69
2022/07/11 08:30:19;;;;;;;;;;;;;;;-142.75;100.00;77103.78;4954404;28;19925;-70
2022/07/11 08:32:44;;;;;;;;;;;;;;;-142.75;100.00;77101.81;4954901;28;20027;-70
2022/07/11 08:35:11;;;;;;;;;;;;;;;-142.75;100.00;77088.03;4954395;28;20014;-69
2022/07/11 08:37:36;;;;;;;;;;;;;;;-142.75;100.00;77086.06;4953127;28;20308;-70
2022/07/11 08:40:01;;;;;;;;;;;;;;;-142.75;100.00;77076.22;4954080;28;20093;-70
2022/07/11 08:42:28;;;;;;;;;;;;;;;-142.75;100.00;77086.06;4954347;28;20295;-70
2022/07/11 08:44:55;;;;;;;;;;;;;;;-142.75;100.00;77082.13;4954204;28;19914;-69
2022/07/11 08:47:20;;;;;;;;;;;;;;;-142.75;100.00;77078.19;4954179;28;19940;-68
2022/07/11 08:49:46;;;;;;;;;;;;;;;-142.75;100.00;77072.28;4952508;28;20384;-68
2022/07/11 08:52:12;;;;;;;;;;;;;;;-142.75;100.00;77058.50;4954114;28;19921;-69
2022/07/11 08:54:38;;;;;;;;;;;;;;;-142.75;100.00;77058.50;4954036;28;20017;-68
2022/07/11 08:57:03;;;;;;;;;;;;;;;-142.75;100.00;77052.59;4953998;28;19942;-69
2022/07/11 08:59:31;;;;;;;;;;;;;;;-142.75;100.00;77036.84;4953647;28;20439;-69
2022/07/11 09:01:58;;;;;;;;;;;;;;;-142.75;100.00;77030.94;4954002;28;20312;-69
2022/07/11 09:04:23;;;;;;;;;;;;;;;-142.75;100.00;77030.94;4953711;28;19915;-69
2022/07/11 09:06:49;;;;;;;;;;;;;;;-142.75;100.00;77023.06;4952306;28;19938;-70
2022/07/11 09:09:14;;;;;;;;;;;;;;;-142.75;100.00;77019.13;4952426;28;19915;-69
2022/07/11 09:11:50;;;;;;;;;;;;;;;-142.75;100.00;77013.22;4953883;28;19976;-70
2022/07/11 09:14:20;;;;;;;;;;;;;;;-142.75;100.00;77019.13;4953646;28;19915;-69
2022/07/11 09:17:02;;;;;;;;;;;;;;;-142.75;100.00;77021.09;4953857;28;19915;-69
2022/07/11 09:19:30;;;;;;;;;;;;;;;-142.75;100.00;77017.16;4952315;28;19914;-70
2022/07/11 09:27:45;;;;;;;;;;;;;;;-142.75;100.00;76975.81;4953630;29;19981;-69
2022/07/11 09:30:17;;;;;;;;;;;;;;;-142.75;100.00;76965.97;4952210;28;19925;-69
2022/07/11 09:32:52;;;;;;;;;;;;;;;-142.75;100.00;76964.00;4953218;28;19918;-69
2022/07/11 09:35:17;;;;;;;;;;;;;;;-142.75;100.00;76948.25;4953485;28;19918;-69
2022/07/11 09:37:45;;;;;;;;;;;;;;;-142.75;100.00;76936.44;4951976;28;19921;-67
2022/07/11 09:40:11;;;;;;;;;;;;;;;-142.75;100.00;76922.66;4953413;28;19914;-68
2022/07/11 09:43:06;;;;;;;;;;;;;;;-142.75;100.00;76902.97;4953226;28;19915;-70
2022/07/11 09:45:32;;;;;;;;;;;;;;;-142.75;100.00;76857.69;4965013;28;19974;-69
2022/07/11 09:47:58;;;;;;;;;;;;;;;-142.75;100.00;76847.84;4951858;28;19914;-70
2022/07/11 09:50:28;;;;;;;;;;;;;;;-142.75;100.00;76832.09;4953164;28;19918;-69
2022/07/11 09:53:05;;;;;;;;;;;;;;;-142.75;100.00;76810.44;4952082;28;19919;-69
2022/07/11 09:55:38;;;;;;;;;;;;;;;-142.75;100.00;76800.63;4949872;28;20399;-69
2022/07/11 09:58:07;;;;;;;;;;;;;;;-142.75;100.00;76800.63;4952798;28;19915;-70
2022/07/11 10:00:33;;;;;;;;;;;;;;;-142.75;100.00;76812.41;4953132;28;19934;-69
2022/07/11 10:02:59;;;;;;;;;;;;;;;-142.75;100.00;76804.53;4953132;28;20373;-70
2022/07/11 10:05:25;;;;;;;;;;;;;;;-142.75;100.00;76761.25;4953044;28;19914;-69
2022/07/11 10:07:50;;;;;;;;;;;;;;;-142.75;100.00;76751.41;4952922;28;19945;-68
2022/07/11 10:10:16;;;;;;;;;;;;;;;-142.75;100.00;76731.72;4952720;28;19972;-70
2022/07/11 10:12:42;;;;;;;;;;;;;;;-142.75;100.00;76664.78;4952913;28;19914;-70
2022/07/11 10:15:08;;;;;;;;;;;;;;;-142.75;100.00;76621.47;4952897;28;20408;-70
2022/07/11 10:17:53;;;;;;;;;;;;;;;-142.75;100.00;76664.78;4952956;28;19914;-69
2022/07/11 10:20:21;;;;;;;;;;;;;;;-142.75;100.00;76666.75;4952894;28;19940;-70
2022/07/11 10:23:05;;;;;;;;;;;;;;;-142.75;100.00;76676.59;4952782;28;19915;-69
2022/07/11 10:25:37;;;;;;;;;;;;;;;-142.75;100.00;76680.53;4952654;28;19918;-70
2022/07/11 10:28:09;;;;;;;;;;;;;;;-142.75;100.00;76584.06;4951242;28;19919;-70
2022/07/11 10:30:47;;;;;;;;;;;;;;;-142.75;100.00;76530.91;4952676;28;20013;-70
2022/07/11 10:33:14;;;;;;;;;;;;;;;-142.75;100.00;76515.19;4952617;28;19918;-70
2022/07/11 10:35:40;;;;;;;;;;;;;;;-142.75;100.00;76534.84;4952641;28;20009;-70
2022/07/11 10:38:06;;;;;;;;;;;;;;;-142.75;100.00;76554.53;4952356;28;20371;-69
2022/07/11 10:40:37;;;;;;;;;;;;;;;-142.75;100.00;76572.25;4951279;28;19914;-68
2022/07/11 10:43:02;;;;;;;;;;;;;;;-142.75;100.00;76586.03;4951781;28;19919;-69
2022/07/11 10:45:27;;;;;;;;;;;;;;;-142.75;100.00;76603.75;4952332;28;20412;-70
2022/07/11 10:47:52;;;;;;;;;;;;;;;-142.75;100.00;76619.50;4952164;28;19938;-67
2022/07/11 10:50:21;;;;;;;;;;;;;;;-142.75;100.00;76532.88;4952358;28;19962;-69
2022/07/11 10:52:48;;;;;;;;;;;;;;;-142.75;100.00;76528.97;4952418;28;20315;-69
2022/07/11 10:55:13;;;;;;;;;;;;;;;-142.75;100.00;76525.03;4952234;28;19915;-69
2022/07/11 10:57:46;;;;;;;;;;;;;;;-142.75;100.00;76495.50;4952308;28;19960;-69
2022/07/11 11:00:14;;;;;;;;;;;;;;;-142.75;100.00;76464.00;4950921;28;20368;-69
2022/07/11 11:02:58;;;;;;;;;;;;;;;-142.75;100.00;76391.16;4952164;28;19915;-68
2022/07/11 11:05:43;;;;;;;;;;;;;;;-142.75;100.00;76424.63;4950914;28;19972;-69
2022/07/11 11:08:27;;;;;;;;;;;;;;;-142.75;100.00;76448.25;4951952;28;19922;-69
2022/07/11 11:10:52;;;;;;;;;;;;;;;-142.75;100.00;76442.34;4951951;28;20103;-69
2022/07/11 11:13:19;;;;;;;;;;;;;;;-142.75;100.00;76401.00;4952060;28;19921;-69
2022/07/11 11:15:55;;;;;;;;;;;;;;;-142.75;100.00;76418.72;4952036;28;19914;-69
2022/07/11 11:18:23;;;;;;;;;;;;;;;-142.75;100.00;76389.19;4951655;28;20338;-69
2022/07/11 11:21:07;;;;;;;;;;;;;;;-142.75;100.00;76340.00;4950752;28;19946;-69
2022/07/11 11:23:39;;;;;;;;;;;;;;;-142.75;100.00;76363.59;4951784;28;19931;-71
2022/07/11 11:26:12;;;;;;;;;;;;;;;-142.75;100.00;76397.06;4950493;28;19997;-71
2022/07/11 11:28:53;;;;;;;;;;;;;;;-142.75;100.00;76383.28;4951617;28;19982;-70
2022/07/11 11:31:18;;;;;;;;;;;;;;;-142.75;100.00;76416.75;4950596;28;19918;-71
2022/07/11 11:33:44;;;;;;;;;;;;;;;-142.75;100.00;76401.00;4951653;28;19915;-71
2022/07/11 11:36:10;;;;;;;;;;;;;;;-142.75;100.00;76367.53;4950541;28;19914;-70
2022/07/11 11:38:36;;;;;;;;;;;;;;;-142.75;100.00;76357.69;4950120;28;19914;-67
2022/07/11 11:41:01;;;;;;;;;;;;;;;-142.75;100.00;76353.78;4950458;28;19915;-69
2022/07/11 11:43:27;;;;;;;;;;;;;;;-142.75;100.00;76330.16;4951639;28;19915;-69
2022/07/11 11:45:53;;;;;;;;;;;;;;;-142.75;100.00;76347.84;4951622;28;19918;-69
2022/07/11 11:48:32;;;;;;;;;;;;;;;-142.75;100.00;76343.94;4951255;28;19922;-69
2022/07/11 11:51:07;;;;;;;;;;;;;;;-142.75;100.00;76351.81;4951555;28;19918;-70
2022/07/11 11:53:36;;;;;;;;;;;;;;;-142.75;100.00;76349.81;4950305;28;19914;-69
2022/07/11 11:56:11;;;;;;;;;;;;;;;-142.75;100.00;76338.03;4951383;28;19914;-69
2022/07/11 11:58:36;;;;;;;;;;;;;;;-142.75;100.00;76316.38;4951247;28;19921;-68
2022/07/11 12:01:01;;;;;;;;;;;;;;;-142.75;100.00;76330.16;4951392;28;20376;-69
2022/07/11 12:03:26;;;;;;;;;;;;;;;-142.75;100.00;76365.56;4950139;28;19954;-68
2022/07/11 12:05:55;;;;;;;;;;;;;;;-142.75;100.00;76385.25;4951353;28;20017;-68
2022/07/11 12:08:28;;;;;;;;;;;;;;;-142.75;100.00;76399.03;4951344;28;20304;-68
2022/07/11 12:10:54;;;;;;;;;;;;;;;-142.75;100.00;76357.69;4951222;28;19923;-68
2022/07/11 12:13:19;;;;;;;;;;;;;;;-142.75;100.00;76369.50;4949929;28;19922;-68
2022/07/11 12:16:46;;;;;;;;;;;;;;;-142.75;100.00;76381.31;4951267;28;19915;-68
2022/07/11 12:18:38;;;;;;;;;;;;;;;-142.75;100.00;76324.25;4950234;28;20415;-69
2022/07/11 12:21:13;;;;;;;;;;;;;;;-142.75;100.00;76288.81;4951209;28;19915;-68
2022/07/11 12:23:41;;;;;;;;;;;;;;;-142.75;100.00;76251.41;4951939;28;19918;-69
2022/07/11 12:26:07;;;;;;;;;;;;;;;-142.75;100.00;76227.78;4951061;29;19952;-68